Time;durP1;ratioP1;P1;durP2;ratioP2;P2;SDS_P1;SDS_P2;PMS_P1;PMS_P2;Temp;Humidity;BMP_temperature;BMP_pressure;BME280_temperature;BME280_humidity;BME280_pressure;Samples;Min_cycle;Max_cycle;Signal;HPM_P1;HPM_P2
2021/07/08 00:00:41;;;;;;;9.23;6.80;;;;;;;19.95;73.24;96790.34;5052805;28;20029;-63
2021/07/08 00:03:06;;;;;;;13.82;7.22;;;;;;;19.95;72.95;96785.91;5052892;28;20040;-61
2021/07/08 00:05:37;;;;;;;6.88;6.28;;;;;;;19.92;72.82;96778.16;5052779;28;20017;-64
2021/07/08 00:08:03;;;;;;;11.20;6.85;;;;;;;19.86;73.27;96786.56;5052861;28;20166;-62
2021/07/08 00:10:37;;;;;;;7.68;6.97;;;;;;;19.78;73.30;96781.78;5052769;28;20120;-60
2021/07/08 00:13:04;;;;;;;8.00;6.95;;;;;;;19.80;73.13;96779.03;5052898;28;20029;-64
2021/07/08 00:15:30;;;;;;;11.18;6.72;;;;;;;19.72;73.48;96778.75;5055188;28;20463;-64
2021/07/08 00:17:58;;;;;;;8.52;7.47;;;;;;;19.70;73.60;96779.72;5056561;28;20028;-63
2021/07/08 00:20:25;;;;;;;7.30;6.63;;;;;;;19.69;73.53;96777.16;5056668;28;20025;-65
2021/07/08 00:22:51;;;;;;;7.65;6.95;;;;;;;19.72;73.40;96779.59;5056597;28;20068;-61
2021/07/08 00:25:24;;;;;;;10.18;6.68;;;;;;;19.68;73.41;96784.25;5056606;28;20052;-63
2021/07/08 00:27:50;;;;;;;13.77;6.90;;;;;;;19.66;73.26;96780.88;5056631;28;20025;-63
2021/07/08 00:30:16;;;;;;;8.35;6.50;;;;;;;19.65;72.72;96786.28;5056511;28;20029;-60
2021/07/08 00:32:42;;;;;;;10.68;7.78;;;;;;;19.64;73.92;96787.25;5056522;28;20017;-61
2021/07/08 00:35:09;;;;;;;7.80;7.00;;;;;;;19.59;73.90;96778.78;5056355;28;20029;-60
2021/07/08 00:37:35;;;;;;;8.70;6.93;;;;;;;19.56;74.50;96782.47;5056317;28;20029;-65
2021/07/08 00:40:01;;;;;;;10.00;7.57;;;;;;;19.58;73.90;96783.22;5056232;28;20116;-63
2021/07/08 00:42:26;;;;;;;8.35;7.40;;;;;;;19.57;74.26;96786.84;5056186;28;20021;-61
2021/07/08 00:44:52;;;;;;;9.77;7.15;;;;;;;19.55;74.34;96784.31;5056215;28;20021;-65
2021/07/08 00:47:18;;;;;;;8.60;7.80;;;;;;;19.58;74.54;96785.88;5056094;28;20017;-62
2021/07/08 00:49:44;;;;;;;10.80;7.38;;;;;;;19.56;73.93;96785.13;5056153;28;20383;-59
2021/07/08 00:52:09;;;;;;;9.63;7.43;;;;;;;19.62;74.54;96787.34;5056166;28;20064;-62
2021/07/08 00:54:35;;;;;;;10.70;7.78;;;;;;;19.61;74.77;96787.47;5055946;28;20534;-60
2021/07/08 00:57:03;;;;;;;14.25;8.13;;;;;;;19.64;75.31;96788.09;5056491;28;20063;-63
2021/07/08 00:59:29;;;;;;;9.02;8.20;;;;;;;19.60;75.11;96785.78;5055769;28;20033;-61
2021/07/08 01:01:55;;;;;;;9.07;7.95;;;;;;;19.49;75.21;96786.53;5055861;28;20031;-61
2021/07/08 01:04:21;;;;;;;10.45;7.63;;;;;;;19.58;75.31;96788.53;5055813;28;20383;-61
2021/07/08 01:06:47;;;;;;;9.68;8.27;;;;;;;19.61;75.85;96788.31;5055731;28;20426;-64
2021/07/08 01:09:14;;;;;;;12.23;8.23;;;;;;;19.64;75.47;96793.41;5055735;28;20542;-63
2021/07/08 01:11:41;;;;;;;8.35;7.55;;;;;;;19.66;75.79;96798.59;5054448;28;20429;-64
2021/07/08 01:14:07;;;;;;;9.40;7.18;;;;;;;19.69;75.51;96812.50;5055652;28;20095;-64
2021/07/08 01:16:33;;;;;;;9.93;7.60;;;;;;;19.69;75.14;96807.19;5055536;28;20475;-62
2021/07/08 01:19:00;;;;;;;7.47;6.57;;;;;;;19.72;75.85;96797.31;5055403;28;20470;-63
2021/07/08 01:21:26;;;;;;;9.93;8.93;;;;;;;19.70;75.85;96800.94;5055462;28;20044;-63
2021/07/08 01:23:54;;;;;;;8.38;7.55;;;;;;;19.78;76.73;96797.72;5055549;28;20032;-65
2021/07/08 01:26:20;;;;;;;12.40;8.90;;;;;;;19.88;76.26;96797.91;5054962;28;20480;-61
2021/07/08 01:28:47;;;;;;;9.77;7.57;;;;;;;19.95;76.27;96795.66;5055354;28;20028;-61
2021/07/08 01:31:13;;;;;;;9.32;7.82;;;;;;;20.01;76.13;96797.03;5055279;28;20024;-61
2021/07/08 01:33:39;;;;;;;8.13;7.35;;;;;;;20.03;76.11;96789.81;5055248;28;20017;-63
2021/07/08 01:36:04;;;;;;;8.75;7.82;;;;;;;20.04;76.23;96788.84;5055199;28;20490;-59
2021/07/08 01:38:30;;;;;;;11.23;7.90;;;;;;;20.07;75.47;96793.94;5055002;28;20123;-63
2021/07/08 01:40:55;;;;;;;9.25;8.43;;;;;;;20.10;75.69;96793.72;5055106;28;20078;-62
2021/07/08 01:43:21;;;;;;;8.63;7.40;;;;;;;20.13;75.62;96790.84;5055153;28;20448;-63
2021/07/08 01:45:47;;;;;;;9.50;7.15;;;;;;;20.10;75.55;96793.72;5055100;28;20142;-60
2021/07/08 01:48:12;;;;;;;9.98;8.93;;;;;;;20.11;75.75;96795.44;5054767;28;20049;-62
2021/07/08 01:50:38;;;;;;;8.10;7.40;;;;;;;20.13;75.53;96790.00;5054953;28;20020;-61
2021/07/08 01:53:04;;;;;;;8.60;6.72;;;;;;;20.14;75.35;96797.84;5054913;28;20374;-60
2021/07/08 01:55:30;;;;;;;9.50;8.20;;;;;;;20.07;75.83;96785.97;5054797;28;20021;-66
2021/07/08 01:57:57;;;;;;;9.40;8.48;;;;;;;20.03;76.52;96795.13;5054782;28;20028;-62
2021/07/08 02:00:24;;;;;;;8.23;7.50;;;;;;;19.99;76.05;96797.16;5054794;28;20048;-64
2021/07/08 02:02:52;;;;;;;9.05;7.40;;;;;;;20.04;75.71;96799.47;5054847;28;20513;-61
2021/07/08 02:05:18;;;;;;;8.23;7.43;;;;;;;20.06;76.03;96793.13;5054694;28;20037;-63
2021/07/08 02:07:44;;;;;;;9.90;8.88;;;;;;;20.06;75.58;96792.25;5054642;28;20051;-61
2021/07/08 02:10:11;;;;;;;8.40;7.60;;;;;;;20.04;75.45;96803.00;5054597;28;20025;-63
2021/07/08 02:12:38;;;;;;;9.77;7.68;;;;;;;20.06;75.56;96789.59;5054546;28;20060;-65
2021/07/08 02:15:05;;;;;;;9.57;8.68;;;;;;;20.03;76.27;96795.13;5054533;28;20557;-61
2021/07/08 02:17:31;;;;;;;8.55;7.18;;;;;;;20.01;75.56;96797.91;5054255;28;20474;-61
2021/07/08 02:19:57;;;;;;;9.20;8.30;;;;;;;19.99;75.77;96791.84;5054429;28;20481;-60
2021/07/08 02:22:23;;;;;;;14.55;7.85;;;;;;;19.97;75.38;96796.41;5054367;28;20021;-60
2021/07/08 02:24:48;;;;;;;10.77;8.15;;;;;;;20.04;75.48;96794.16;5054318;28;20502;-64
2021/07/08 02:27:14;;;;;;;9.43;7.85;;;;;;;20.02;75.49;96790.78;5054216;28;20017;-62
2021/07/08 02:29:40;;;;;;;9.20;8.07;;;;;;;20.03;75.42;96796.00;5054190;28;20017;-62
2021/07/08 02:32:08;;;;;;;8.13;6.88;;;;;;;20.01;74.97;96789.94;5054129;28;20632;-66
2021/07/08 02:34:36;;;;;;;11.27;9.10;;;;;;;19.93;75.13;96793.09;5054091;28;20033;-63
2021/07/08 02:37:06;;;;;;;11.07;8.27;;;;;;;19.94;75.42;96786.88;5053978;28;20040;-61
2021/07/08 02:39:32;;;;;;;9.35;8.43;;;;;;;19.98;75.67;96787.47;5053159;28;20060;-66
2021/07/08 02:41:57;;;;;;;8.35;7.45;;;;;;;19.98;75.25;96789.28;5053970;28;20160;-64
2021/07/08 02:44:23;;;;;;;12.70;7.80;;;;;;;19.99;75.28;96794.50;5053861;28;20021;-64
2021/07/08 02:46:49;;;;;;;8.60;7.70;;;;;;;20.00;75.35;96798.84;5053878;28;20543;-61
2021/07/08 02:49:14;;;;;;;8.88;7.88;;;;;;;19.98;74.90;96798.09;5053636;28;20441;-60
2021/07/08 02:51:40;;;;;;;10.00;8.23;;;;;;;20.03;75.36;96803.09;5053832;28;20100;-62
2021/07/08 02:54:05;;;;;;;12.68;8.15;;;;;;;20.06;74.88;96800.22;5053695;28;20056;-62
2021/07/08 02:56:31;;;;;;;8.90;7.53;;;;;;;20.08;74.89;96799.16;5053746;28;20360;-63
2021/07/08 02:58:56;;;;;;;8.20;7.20;;;;;;;20.12;75.26;96796.28;5053516;28;20091;-61
2021/07/08 03:01:22;;;;;;;12.18;8.05;;;;;;;20.12;74.96;96801.56;5053688;28;20378;-61
2021/07/08 03:03:48;;;;;;;10.05;7.28;;;;;;;20.12;75.00;96799.78;5053590;28;20028;-63
2021/07/08 03:06:13;;;;;;;9.27;7.72;;;;;;;20.10;75.06;96798.22;5053460;28;20021;-64
2021/07/08 03:08:39;;;;;;;8.18;7.38;;;;;;;20.11;74.33;96806.06;5053473;28;20029;-62
2021/07/08 03:11:05;;;;;;;10.10;9.10;;;;;;;20.06;74.73;96800.22;5053512;28;20383;-61
2021/07/08 03:13:30;;;;;;;10.63;7.70;;;;;;;20.08;75.34;96796.50;5053488;28;20021;-61
2021/07/08 03:15:56;;;;;;;9.68;7.35;;;;;;;20.16;75.48;96808.34;5053447;28;20120;-61
2021/07/08 03:18:22;;;;;;;7.75;6.95;;;;;;;20.25;75.08;96813.00;5053254;28;20029;-65
2021/07/08 03:20:48;;;;;;;11.50;8.05;;;;;;;20.23;74.75;96816.75;5053213;28;20040;-64
2021/07/08 03:23:14;;;;;;;8.10;6.97;;;;;;;20.27;74.81;96819.06;5053230;28;20028;-61
2021/07/08 03:25:40;;;;;;;10.55;7.35;;;;;;;20.34;74.75;96822.09;5053302;28;20447;-64
2021/07/08 03:28:06;;;;;;;8.43;7.53;;;;;;;20.37;74.77;96821.88;5053168;28;20029;-62
2021/07/08 03:30:32;;;;;;;12.18;7.68;;;;;;;20.39;74.70;96819.97;5053156;28;20021;-65
2021/07/08 03:32:59;;;;;;;9.88;7.07;;;;;;;20.49;74.06;96819.25;5053223;28;20094;-62
2021/07/08 03:35:27;;;;;;;12.45;6.38;;;;;;;20.62;73.98;96824.53;5053091;28;20017;-62
2021/07/08 03:37:53;;;;;;;6.85;5.82;;;;;;;20.82;73.43;96821.22;5053003;28;20104;-62
2021/07/08 03:40:20;;;;;;;7.18;6.05;;;;;;;20.95;73.11;96823.81;5053076;28;20079;-61
2021/07/08 03:42:46;;;;;;;6.68;5.80;;;;;;;21.12;72.51;96818.16;5053041;28;20100;-64
2021/07/08 03:45:12;;;;;;;6.50;5.90;;;;;;;21.20;72.26;96819.28;5052955;28;20028;-63
2021/07/08 03:47:40;;;;;;;6.53;5.93;;;;;;;21.41;72.15;96823.06;5052756;28;20049;-63
2021/07/08 03:50:08;;;;;;;6.20;5.60;;;;;;;21.79;71.24;96819.22;5052964;28;20056;-65
2021/07/08 03:52:33;;;;;;;7.15;5.55;;;;;;;22.24;70.28;96821.94;5053060;28;20029;-65
2021/07/08 03:54:59;;;;;;;5.03;4.53;;;;;;;22.67;68.44;96815.75;5052869;28;20029;-62
2021/07/08 03:57:25;;;;;;;9.30;5.60;;;;;;;23.09;66.66;96814.94;5052889;28;20036;-63
2021/07/08 03:59:50;;;;;;;6.13;4.97;;;;;;;23.53;66.13;96824.63;5052714;28;20032;-65
2021/07/08 04:02:16;;;;;;;5.30;4.90;;;;;;;23.92;65.23;96823.94;5052795;28;20025;-65
2021/07/08 04:04:42;;;;;;;6.22;5.28;;;;;;;24.27;64.53;96826.28;5052916;28;20029;-62
2021/07/08 04:07:08;;;;;;;5.00;4.60;;;;;;;24.38;64.33;96822.66;5052744;28;20026;-65
2021/07/08 04:09:34;;;;;;;5.05;4.65;;;;;;;24.35;64.10;96821.13;5052696;28;20017;-60
2021/07/08 04:12:00;;;;;;;6.15;5.55;;;;;;;24.20;64.53;96824.16;5052801;28;20040;-65
2021/07/08 04:14:26;;;;;;;9.15;5.57;;;;;;;24.10;64.85;96837.47;5052823;28;20021;-65
2021/07/08 04:16:52;;;;;;;6.05;5.45;;;;;;;23.98;65.64;96831.41;5052698;28;20028;-62
2021/07/08 04:19:17;;;;;;;6.18;5.57;;;;;;;23.88;66.03;96835.00;5052525;28;20071;-62
2021/07/08 04:21:43;;;;;;;7.82;5.55;;;;;;;23.73;66.42;96838.91;5052629;28;20029;-65
2021/07/08 04:24:09;;;;;;;7.45;6.40;;;;;;;23.69;66.25;96841.97;5052713;28;20043;-62
2021/07/08 04:26:35;;;;;;;6.50;5.90;;;;;;;23.68;66.60;96842.94;5052744;28;20013;-62
2021/07/08 04:29:00;;;;;;;8.57;5.70;;;;;;;23.63;67.52;96842.50;5052605;28;20091;-63
2021/07/08 04:31:26;;;;;;;7.15;6.30;;;;;;;23.58;67.64;96846.44;5052496;28;20060;-64
2021/07/08 04:33:52;;;;;;;8.15;6.88;;;;;;;23.54;66.99;96844.16;5052456;28;20021;-65
2021/07/08 04:36:17;;;;;;;7.05;6.30;;;;;;;23.57;68.50;96849.22;5052425;28;20533;-63
2021/07/08 04:38:47;;;;;;;7.70;5.57;;;;;;;23.50;68.69;96848.06;5052547;28;20064;-65
2021/07/08 04:41:13;;;;;;;7.03;5.53;;;;;;;23.50;69.11;96854.25;5052536;28;20055;-61
2021/07/08 04:43:38;;;;;;;6.30;5.25;;;;;;;23.50;69.18;96859.56;5051247;28;20474;-62
2021/07/08 04:46:04;;;;;;;8.73;6.55;;;;;;;23.48;69.64;96862.38;5052390;28;20057;-66
2021/07/08 04:48:30;;;;;;;7.85;5.90;;;;;;;23.50;69.35;96867.59;5052198;28;20371;-62
2021/07/08 04:50:55;;;;;;;6.97;6.22;;;;;;;23.50;69.82;96859.56;5052482;28;20028;-63
2021/07/08 04:53:21;;;;;;;9.38;6.07;;;;;;;23.48;70.03;96866.88;5052371;28;20413;-63
2021/07/08 04:55:47;;;;;;;7.50;6.80;;;;;;;23.47;69.00;96866.03;5052382;28;20148;-64
2021/07/08 04:58:14;;;;;;;7.90;6.45;;;;;;;23.51;68.57;96871.09;5052324;28;20497;-62
2021/07/08 05:00:40;;;;;;;6.90;6.25;;;;;;;23.51;68.40;96871.09;5052324;28;20032;-61
2021/07/08 05:03:08;;;;;;;6.93;6.30;;;;;;;23.60;67.69;96873.00;5055217;28;20525;-62
2021/07/08 05:05:34;;;;;;;6.85;6.25;;;;;;;23.84;67.65;96875.34;5055802;28;20017;-62
2021/07/08 05:07:59;;;;;;;10.30;5.88;;;;;;;24.18;67.38;96874.25;5054521;28;20373;-65
2021/07/08 05:10:25;;;;;;;7.38;6.63;;;;;;;24.72;64.23;96873.88;5055736;28;20146;-65
2021/07/08 05:12:51;;;;;;;10.32;6.82;;;;;;;25.40;63.94;96878.53;5055733;28;20025;-65
2021/07/08 05:15:17;;;;;;;7.95;6.32;;;;;;;25.98;61.55;96880.22;5055643;28;20112;-65
2021/07/08 05:17:44;;;;;;;7.78;5.90;;;;;;;26.60;59.52;96880.59;5055617;28;20471;-63
2021/07/08 05:20:11;;;;;;;6.78;5.72;;;;;;;27.27;58.28;96878.56;5055537;28;20059;-68
2021/07/08 05:22:38;;;;;;;6.95;5.65;;;;;;;27.86;55.58;96872.56;5055460;28;20091;-65
2021/07/08 05:25:06;;;;;;;13.35;6.05;;;;;;;28.29;54.45;96869.91;5055449;28;20044;-67
2021/07/08 05:27:32;;;;;;;10.50;5.72;;;;;;;28.86;54.02;96880.97;5055419;28;20036;-65
2021/07/08 05:29:59;;;;;;;8.00;6.22;;;;;;;29.46;51.53;96880.84;5055443;28;20025;-64
2021/07/08 05:32:25;;;;;;;9.23;6.05;;;;;;;29.91;51.52;96889.34;5055290;28;20474;-62
2021/07/08 05:34:50;;;;;;;8.15;5.93;;;;;;;30.12;49.25;96894.19;5055252;28;20027;-67
2021/07/08 05:37:16;;;;;;;7.68;6.40;;;;;;;30.37;50.76;96888.69;5055395;28;20025;-67
2021/07/08 05:39:42;;;;;;;7.28;6.00;;;;;;;30.71;50.29;96897.47;5055092;28;20425;-68
2021/07/08 05:42:07;;;;;;;8.95;6.07;;;;;;;31.10;47.10;96884.91;5055255;28;20028;-68
2021/07/08 05:44:33;;;;;;;6.82;5.90;;;;;;;31.21;48.74;96891.72;5055106;28;20017;-64
2021/07/08 05:46:59;;;;;;;5.90;4.85;;;;;;;31.61;47.31;96890.75;5055003;28;20024;-65
2021/07/08 05:49:25;;;;;;;7.53;5.32;;;;;;;31.99;46.89;96892.59;5054873;28;20094;-62
2021/07/08 05:51:50;;;;;;;5.28;4.70;;;;;;;32.02;44.08;96894.88;5054964;28;20032;-64
2021/07/08 05:54:16;;;;;;;8.73;4.80;;;;;;;31.81;45.64;96904.53;5054989;28;20071;-63
2021/07/08 05:56:42;;;;;;;5.45;4.78;;;;;;;31.48;47.18;96894.09;5054912;28;20020;-64
2021/07/08 05:59:07;;;;;;;6.28;4.53;;;;;;;31.13;47.86;96897.22;5054661;28;20497;-64
2021/07/08 06:01:33;;;;;;;7.38;4.93;;;;;;;30.85;48.92;96898.59;5054827;28;20025;-66
2021/07/08 06:03:59;;;;;;;6.03;5.07;;;;;;;30.51;49.13;96902.47;5054743;28;20032;-63
2021/07/08 06:06:24;;;;;;;8.07;6.22;;;;;;;30.29;51.32;96909.47;5054694;28;20403;-68
2021/07/08 06:08:51;;;;;;;7.47;5.32;;;;;;;30.19;49.49;96913.22;5054698;28;20033;-64
2021/07/08 06:11:17;;;;;;;7.78;5.15;;;;;;;30.06;50.27;96912.91;5054699;28;20072;-63
2021/07/08 06:13:43;;;;;;;6.68;5.05;;;;;;;29.98;52.12;96919.19;5054438;28;20482;-65
2021/07/08 06:16:10;;;;;;;11.57;4.88;;;;;;;30.10;53.25;96909.69;5054563;28;20021;-64
2021/07/08 06:18:36;;;;;;;8.13;4.35;;;;;;;30.14;51.09;96915.59;5054419;28;20029;-65
2021/07/08 06:21:03;;;;;;;5.15;4.20;;;;;;;30.10;48.45;96922.34;5054347;28;20040;-63
2021/07/08 06:23:30;;;;;;;4.28;3.83;;;;;;;29.94;48.51;96918.66;5054386;28;20029;-66
2021/07/08 06:25:56;;;;;;;4.30;3.63;;;;;;;29.74;50.10;96919.03;5054244;28;20025;-64
2021/07/08 06:28:22;;;;;;;3.78;3.40;;;;;;;29.68;51.31;96914.38;5054203;28;20017;-63
2021/07/08 06:30:48;;;;;;;4.45;3.60;;;;;;;29.67;50.98;96917.22;5054203;28;20063;-66
2021/07/08 06:33:13;;;;;;;3.45;3.15;;;;;;;29.64;49.05;96923.78;5054249;28;20036;-67
2021/07/08 06:35:41;;;;;;;4.35;3.58;;;;;;;29.37;47.27;96915.00;5054019;28;20074;-68
2021/07/08 06:38:07;;;;;;;3.60;3.30;;;;;;;28.93;47.94;96908.97;5053957;28;20036;-63
2021/07/08 06:40:32;;;;;;;8.65;3.88;;;;;;;29.04;49.96;96913.16;5054135;28;20029;-63
2021/07/08 06:42:58;;;;;;;5.68;3.75;;;;;;;29.00;49.07;96922.59;5053959;28;20021;-64
2021/07/08 06:45:25;;;;;;;4.60;4.20;;;;;;;28.96;49.14;96923.94;5053940;28;20028;-67
2021/07/08 06:47:52;;;;;;;4.32;3.92;;;;;;;28.95;49.24;96920.38;5053687;28;20044;-62
2021/07/08 06:50:19;;;;;;;9.38;3.83;;;;;;;29.13;49.92;96922.09;5053863;28;20032;-64
2021/07/08 06:52:46;;;;;;;5.00;4.07;;;;;;;29.17;49.78;96923.47;5053755;28;20043;-63
2021/07/08 06:55:12;;;;;;;5.57;4.18;;;;;;;29.34;48.01;96926.97;5053751;28;20028;-61
2021/07/08 06:57:50;;;;;;;6.53;4.30;;;;;;;29.52;50.71;96929.50;5053625;28;20024;-67
2021/07/08 07:00:38;;;;;;;6.28;3.75;;;;;;;30.42;48.89;96931.34;5053566;28;20082;-63
2021/07/08 07:03:05;;;;;;;4.40;3.75;;;;;;;31.23;46.31;96919.41;5053575;28;20036;-63
2021/07/08 07:05:32;;;;;;;6.07;4.00;;;;;;;31.78;45.02;96926.53;5053554;28;20021;-68
2021/07/08 07:07:58;;;;;;;6.72;3.60;;;;;;;32.10;41.66;96924.56;5053472;28;20116;-67
2021/07/08 07:10:25;;;;;;;6.07;4.13;;;;;;;32.21;41.37;96930.53;5053509;28;20111;-66
2021/07/08 07:12:53;;;;;;;6.75;3.63;;;;;;;32.45;41.39;96925.84;5053380;28;20021;-65
2021/07/08 07:15:22;;;;;;;3.97;3.30;;;;;;;32.61;40.77;96925.66;5053468;28;20021;-66
2021/07/08 07:17:47;;;;;;;5.10;3.42;;;;;;;32.87;41.62;96920.72;5053320;28;20025;-64
2021/07/08 07:20:16;;;;;;;4.53;3.42;;;;;;;33.08;39.71;96930.75;5053419;28;20432;-64
2021/07/08 07:22:45;;;;;;;4.25;3.85;;;;;;;32.59;40.80;96933.09;5053212;28;20528;-62
2021/07/08 07:25:13;;;;;;;7.18;3.92;;;;;;;32.09;42.18;96928.28;5051482;28;20028;-65
2021/07/08 07:27:39;;;;;;;9.95;3.55;;;;;;;32.14;42.14;96923.16;5053296;28;20028;-64
2021/07/08 07:33:26;;;;;;;3.88;3.58;;;;;;;32.36;41.23;96919.69;5053238;28;20078;-62
2021/07/08 07:35:52;;;;;;;4.85;4.00;;;;;;;32.22;41.47;96926.78;5052986;28;20018;-65
2021/07/08 07:38:18;;;;;;;5.80;3.55;;;;;;;32.34;41.50;96930.69;5053063;28;20064;-63
2021/07/08 07:40:44;;;;;;;5.85;3.90;;;;;;;32.58;42.86;96928.72;5053167;28;20029;-67
2021/07/08 07:43:10;;;;;;;3.88;3.47;;;;;;;33.02;40.01;96924.19;5053044;28;20383;-62
2021/07/08 07:45:36;;;;;;;4.57;3.35;;;;;;;33.19;39.53;96925.88;5053058;28;20036;-67
2021/07/08 07:48:01;;;;;;;4.75;3.58;;;;;;;32.81;39.65;96932.31;5051405;28;20045;-65
2021/07/08 07:50:31;;;;;;;4.72;4.28;;;;;;;32.20;41.83;96928.84;5052917;28;20029;-63
2021/07/08 07:52:57;;;;;;;4.97;3.55;;;;;;;32.26;41.54;96928.94;5053066;28;20067;-63
2021/07/08 07:55:27;;;;;;;5.55;3.80;;;;;;;32.06;41.28;96925.09;5052906;28;20025;-63
2021/07/08 07:57:53;;;;;;;4.30;3.90;;;;;;;31.52;40.89;96923.22;5052838;28;20504;-64
2021/07/08 08:00:19;;;;;;;5.80;3.80;;;;;;;31.06;42.72;96929.47;5052800;28;20401;-64
2021/07/08 08:02:44;;;;;;;6.07;3.45;;;;;;;31.15;42.46;96924.84;5052855;28;20021;-67
2021/07/08 08:10:26;;;;;;;6.22;3.88;;;;;;;30.46;46.49;96932.66;5053085;28;20095;-64
2021/07/08 08:12:51;;;;;;;8.50;3.72;;;;;;;30.71;45.52;96918.22;5052712;28;20413;-63
2021/07/08 08:15:18;;;;;;;5.95;3.92;;;;;;;31.14;44.22;96918.63;5052695;28;20051;-64
2021/07/08 08:17:46;;;;;;;5.43;3.83;;;;;;;31.44;43.96;96922.47;5052601;28;20513;-65
2021/07/08 08:20:13;;;;;;;4.38;3.75;;;;;;;31.49;43.95;96911.97;5052655;28;20071;-62
2021/07/08 08:22:41;;;;;;;5.25;3.90;;;;;;;31.35;43.56;96917.16;5052573;28;20497;-65
2021/07/08 08:25:08;;;;;;;4.07;3.67;;;;;;;31.06;42.26;96920.56;5052641;28;20052;-65
2021/07/08 08:27:34;;;;;;;4.28;3.25;;;;;;;30.67;43.59;96915.03;5052788;28;20056;-62
2021/07/08 08:30:00;;;;;;;11.13;3.38;;;;;;;30.57;44.18;96917.09;5052581;28;20048;-63
2021/07/08 08:32:25;;;;;;;5.40;3.85;;;;;;;30.50;43.60;96917.84;5052570;28;20082;-61
2021/07/08 08:34:51;;;;;;;5.32;3.60;;;;;;;30.40;43.78;96919.91;5052483;28;20109;-62
2021/07/08 08:37:16;;;;;;;3.72;3.30;;;;;;;30.46;43.48;96916.47;5054270;28;20463;-62
2021/07/08 08:39:42;;;;;;;7.82;3.83;;;;;;;30.48;43.79;96913.59;5056226;28;20069;-62
2021/07/08 08:42:08;;;;;;;7.30;4.40;;;;;;;30.12;43.31;96913.06;5056273;28;20436;-64
2021/07/08 08:44:35;;;;;;;6.05;3.60;;;;;;;29.93;43.88;96914.31;5056372;28;20099;-61
2021/07/08 08:47:01;;;;;;;4.43;3.60;;;;;;;29.98;44.21;96919.19;5056256;28;20070;-61
2021/07/08 08:49:27;;;;;;;5.75;4.13;;;;;;;29.82;44.57;96918.19;5055784;28;20172;-63
2021/07/08 08:51:53;;;;;;;4.60;3.38;;;;;;;29.76;45.26;96913.47;5056137;28;20104;-65
2021/07/08 08:54:19;;;;;;;3.85;3.55;;;;;;;29.73;46.82;96909.28;5056062;28;20017;-62
2021/07/08 08:56:47;;;;;;;4.78;4.10;;;;;;;29.96;46.99;96923.88;5056100;28;20036;-63
2021/07/08 08:59:13;;;;;;;4.70;4.18;;;;;;;29.80;45.98;96922.09;5055826;28;20027;-65
2021/07/08 09:01:39;;;;;;;4.30;3.83;;;;;;;29.74;47.04;96920.91;5055861;28;20096;-66
2021/07/08 09:04:04;;;;;;;6.25;3.75;;;;;;;29.92;44.89;96917.16;5055916;28;20029;-65
2021/07/08 09:06:37;;;;;;;5.05;3.47;;;;;;;30.32;46.71;96915.38;5055861;28;20017;-64
2021/07/08 09:09:10;;;;;;;5.95;4.35;;;;;;;30.32;43.95;96923.47;5055850;28;20021;-66
2021/07/08 09:11:36;;;;;;;7.40;3.53;;;;;;;30.25;43.58;96919.81;5055742;28;20445;-63
2021/07/08 09:14:07;;;;;;;5.07;3.60;;;;;;;30.22;43.34;96920.97;5055629;28;20025;-65
2021/07/08 09:16:38;;;;;;;4.57;3.40;;;;;;;30.11;44.61;96919.47;5055655;28;20063;-63
2021/07/08 09:19:12;;;;;;;5.20;3.33;;;;;;;29.69;43.73;96921.44;5055915;28;20561;-63
2021/07/08 09:21:41;;;;;;;4.05;3.70;;;;;;;29.53;45.09;96922.25;5055684;28;20036;-65
2021/07/08 09:24:22;;;;;;;3.67;3.37;;;;;;;29.34;44.69;96923.44;5055796;28;20029;-64
2021/07/08 09:26:57;;;;;;;4.57;3.80;;;;;;;29.34;47.15;96915.34;5055533;28;20029;-62
2021/07/08 09:29:30;;;;;;;3.80;3.50;;;;;;;29.38;45.21;96922.09;5055480;28;20029;-64
2021/07/08 09:31:59;;;;;;;10.38;3.88;;;;;;;29.51;44.71;96917.06;5055571;28;20021;-62
2021/07/08 09:34:27;;;;;;;4.47;3.40;;;;;;;29.37;44.85;96921.25;5055380;28;20056;-64
2021/07/08 09:37:03;;;;;;;6.93;3.72;;;;;;;29.39;45.19;96913.84;5055397;28;20033;-64
2021/07/08 09:39:31;;;;;;;5.95;3.80;;;;;;;29.57;45.75;96914.69;5055108;28;20032;-66
2021/07/08 09:41:57;;;;;;;6.15;3.55;;;;;;;29.66;43.08;96907.44;5055148;28;20031;-62
2021/07/08 09:44:25;;;;;;;4.88;3.60;;;;;;;29.61;43.34;96919.59;5053954;28;20029;-67
2021/07/08 09:46:53;;;;;;;7.05;3.65;;;;;;;29.63;43.69;96933.75;5055016;28;20407;-61
2021/07/08 09:49:19;;;;;;;5.95;3.72;;;;;;;29.48;42.77;96924.63;5054429;28;20071;-61
2021/07/08 09:51:46;;;;;;;4.65;3.67;;;;;;;29.35;43.27;96925.97;5054936;28;20478;-65
2021/07/08 09:54:25;;;;;;;4.63;3.45;;;;;;;29.44;44.84;96923.28;5055102;28;20064;-62
2021/07/08 09:56:56;;;;;;;6.45;3.20;;;;;;;29.41;44.38;96920.91;5055057;28;20040;-63
2021/07/08 09:59:34;;;;;;;4.65;3.60;;;;;;;29.63;44.32;96919.41;5054830;28;20029;-66
2021/07/08 10:02:00;;;;;;;6.60;3.67;;;;;;;29.74;43.71;96923.63;5054887;28;20024;-64
2021/07/08 10:04:27;;;;;;;3.88;3.33;;;;;;;29.90;43.61;96928.13;5054808;28;20029;-60
2021/07/08 10:06:54;;;;;;;4.90;3.88;;;;;;;29.83;41.53;96925.25;5054691;28;20029;-64
2021/07/08 10:09:22;;;;;;;6.55;3.38;;;;;;;29.76;43.48;96924.25;5054782;28;20024;-64
2021/07/08 10:11:50;;;;;;;7.72;3.40;;;;;;;29.52;43.13;96917.88;5054524;28;20104;-65
2021/07/08 10:14:19;;;;;;;4.25;3.85;;;;;;;29.48;44.55;96912.00;5054563;28;20383;-62
2021/07/08 10:16:54;;;;;;;4.63;3.83;;;;;;;29.52;43.84;96918.72;5054580;28;20428;-65
2021/07/08 10:19:21;;;;;;;4.90;3.58;;;;;;;29.49;42.44;96910.13;5054280;28;20043;-61
2021/07/08 10:21:48;;;;;;;4.25;3.42;;;;;;;29.72;44.54;96921.09;5054404;28;20040;-64
2021/07/08 10:24:15;;;;;;;4.43;4.03;;;;;;;29.83;44.08;96906.38;5054365;28;20028;-65
2021/07/08 10:26:44;;;;;;;6.55;4.00;;;;;;;30.06;42.95;96904.81;5054283;28;20029;-60
2021/07/08 10:29:11;;;;;;;3.58;3.28;;;;;;;30.03;42.41;96914.09;5054269;28;20041;-66
2021/07/08 10:31:39;;;;;;;3.60;3.30;;;;;;;30.21;41.75;96905.81;5054211;28;20025;-66
2021/07/08 10:34:08;;;;;;;5.60;3.83;;;;;;;30.06;43.20;96913.75;5054166;28;20035;-64
2021/07/08 10:36:34;;;;;;;7.03;3.60;;;;;;;29.87;42.29;96899.66;5054050;28;20025;-66
2021/07/08 10:39:09;;;;;;;4.22;3.40;;;;;;;29.96;44.50;96897.78;5052782;28;20436;-62
2021/07/08 10:41:34;;;;;;;4.32;3.80;;;;;;;29.99;43.53;96905.53;5053985;28;20035;-64
2021/07/08 10:44:00;;;;;;;4.68;3.78;;;;;;;29.90;43.00;96901.16;5053976;28;20112;-63
2021/07/08 10:46:37;;;;;;;4.28;3.88;;;;;;;29.60;43.08;96892.81;5053952;28;20364;-65
2021/07/08 10:49:13;;;;;;;6.18;3.53;;;;;;;29.56;44.75;96888.78;5053673;28;20047;-61
2021/07/08 10:51:42;;;;;;;4.53;3.97;;;;;;;29.95;44.99;96885.31;5053880;28;20025;-64
2021/07/08 10:54:28;;;;;;;6.90;3.90;;;;;;;30.34;43.76;96880.13;5053700;28;20055;-64
2021/07/08 10:56:56;;;;;;;4.50;3.75;;;;;;;29.93;43.40;96886.50;5053683;28;20017;-62
2021/07/08 10:59:21;;;;;;;4.60;3.90;;;;;;;29.96;44.15;96876.22;5052851;28;20029;-62
2021/07/08 11:01:54;;;;;;;5.63;3.80;;;;;;;29.85;41.88;96880.13;5053660;28;20029;-64
2021/07/08 11:04:48;;;;;;;5.43;3.55;;;;;;;29.71;43.33;96881.66;5053618;28;20035;-64
2021/07/08 11:07:14;;;;;;;5.00;4.20;;;;;;;29.73;44.50;96879.66;5053528;28;20048;-62
2021/07/08 11:10:03;;;;;;;6.82;3.90;;;;;;;29.78;44.54;96876.44;5053528;28;20184;-65
2021/07/08 11:12:36;;;;;;;7.50;4.13;;;;;;;29.76;44.34;96882.00;5053505;28;20086;-67
2021/07/08 11:15:07;;;;;;;4.95;4.10;;;;;;;29.19;45.38;96877.50;5053394;28;20045;-65
2021/07/08 11:17:45;;;;;;;7.00;4.30;;;;;;;28.94;46.73;96874.78;5053395;28;20027;-63
2021/07/08 11:20:32;;;;;;;6.93;4.35;;;;;;;29.25;47.28;96872.28;5053442;28;20384;-64
2021/07/08 11:23:40;;;;;;;4.97;4.57;;;;;;;29.64;46.31;96877.97;5053354;28;20069;-66
2021/07/08 11:26:09;;;;;;;8.98;4.07;;;;;;;29.95;45.70;96869.13;5052598;28;20045;-62
2021/07/08 11:28:34;;;;;;;5.40;3.67;;;;;;;30.13;45.08;96868.91;5053225;28;20029;-66
2021/07/08 11:31:08;;;;;;;6.55;3.88;;;;;;;30.20;43.05;96863.69;5053191;28;20028;-63
2021/07/08 11:33:41;;;;;;;6.03;3.83;;;;;;;30.15;42.82;96868.72;5053351;28;20078;-64
2021/07/08 11:36:11;;;;;;;6.50;4.07;;;;;;;30.15;43.82;96866.03;5053089;28;20036;-65
2021/07/08 11:38:44;;;;;;;4.55;3.72;;;;;;;30.16;44.46;96858.78;5052930;28;20127;-67
2021/07/08 11:41:10;;;;;;;4.40;4.00;;;;;;;30.11;45.36;96854.75;5053039;28;20029;-63